Time;durP1;ratioP1;P1;durP2;ratioP2;P2;SDS_P1;SDS_P2;PMS_P1;PMS_P2;Temp;Humidity;BMP_temperature;BMP_pressure;BME280_temperature;BME280_humidity;BME280_pressure;Samples;Min_cycle;Max_cycle;Signal;HPM_P1;HPM_P2
2022/07/23 00:00:02;;;;;;;;;;;23.40;46.80;;;;;;5015394;28;19929;-64
2022/07/23 00:02:29;;;;;;;;;;;23.50;46.90;;;;;;5017363;28;19975;-64
2022/07/23 00:04:56;;;;;;;;;;;23.40;46.80;;;;;;5015190;28;19968;-64
2022/07/23 00:07:22;;;;;;;;;;;23.50;46.90;;;;;;5032205;28;20430;-64
2022/07/23 00:09:50;;;;;;;;;;;23.50;46.90;;;;;;5033050;28;20016;-64
2022/07/23 00:12:17;;;;;;;;;;;23.50;46.90;;;;;;5014495;28;19928;-64
2022/07/23 00:14:44;;;;;;;;;;;23.50;46.90;;;;;;5016920;28;19927;-64
2022/07/23 00:17:11;;;;;;;;;;;23.40;46.90;;;;;;5013885;28;19929;-64
2022/07/23 00:19:37;;;;;;;;;;;23.50;47.00;;;;;;5014424;28;20425;-64
2022/07/23 00:22:04;;;;;;;;;;;23.40;46.80;;;;;;5016028;28;20347;-64
2022/07/23 00:24:31;;;;;;;;;;;23.50;46.90;;;;;;5013914;28;19925;-64
2022/07/23 00:26:59;;;;;;;;;;;23.40;46.80;;;;;;5013341;28;19967;-65
2022/07/23 00:29:26;;;;;;;;;;;23.40;46.80;;;;;;5015477;28;19926;-64
2022/07/23 00:31:53;;;;;;;;;;;23.40;46.80;;;;;;4998087;28;19933;-64
2022/07/23 00:34:19;;;;;;;;;;;23.40;46.80;;;;;;4996164;28;19968;-64
2022/07/23 00:36:46;;;;;;;;;;;23.40;46.70;;;;;;4996735;28;19925;-64
2022/07/23 00:39:13;;;;;;;;;;;23.40;46.80;;;;;;4995371;28;19930;-64
2022/07/23 00:41:39;;;;;;;;;;;23.40;46.80;;;;;;4996719;28;19954;-64
2022/07/23 00:44:17;;;;;;;;;;;23.40;46.80;;;;;;5028303;28;19968;-64
2022/07/23 00:46:48;;;;;;;;;;;23.40;46.80;;;;;;5004872;28;20324;-64
2022/07/23 00:49:14;;;;;;;;;;;23.40;46.80;;;;;;5016549;28;19922;-64
2022/07/23 00:51:41;;;;;;;;;;;23.40;46.80;;;;;;5014051;28;19961;-64
2022/07/23 00:54:08;;;;;;;;;;;23.40;46.80;;;;;;4997767;28;19929;-65
2022/07/23 00:56:35;;;;;;;;;;;23.40;46.80;;;;;;5029253;28;19922;-64
2022/07/23 00:59:01;;;;;;;;;;;23.40;46.80;;;;;;4993582;28;19926;-65
2022/07/23 01:01:29;;;;;;;;;;;23.40;46.90;;;;;;4994371;28;19975;-65
2022/07/23 01:03:56;;;;;;;;;;;23.40;46.90;;;;;;5016658;28;19921;-64
2022/07/23 01:06:23;;;;;;;;;;;23.40;46.90;;;;;;5014149;28;19968;-64
2022/07/23 01:08:50;;;;;;;;;;;23.40;46.80;;;;;;5015868;28;19972;-64
2022/07/23 01:11:17;;;;;;;;;;;23.40;46.90;;;;;;5014715;28;20003;-64
2022/07/23 01:13:43;;;;;;;;;;;23.40;46.90;;;;;;5009490;28;19925;-64
2022/07/23 01:16:10;;;;;;;;;;;23.40;46.80;;;;;;5011744;28;19921;-64
2022/07/23 01:18:38;;;;;;;;;;;23.40;46.90;;;;;;5008739;28;20255;-65
2022/07/23 01:21:05;;;;;;;;;;;23.40;46.90;;;;;;5015411;28;20278;-64
2022/07/23 01:23:33;;;;;;;;;;;23.40;46.90;;;;;;5014788;28;20016;-64
2022/07/23 01:26:00;;;;;;;;;;;23.40;46.90;;;;;;5009677;28;20359;-64
2022/07/23 01:28:26;;;;;;;;;;;23.30;46.80;;;;;;5007605;28;19929;-64
2022/07/23 01:30:53;;;;;;;;;;;23.40;46.90;;;;;;5012792;28;19987;-64
2022/07/23 01:33:20;;;;;;;;;;;23.30;46.90;;;;;;5013496;28;19971;-64
2022/07/23 01:35:47;;;;;;;;;;;23.30;46.90;;;;;;5013776;28;19921;-64
2022/07/23 01:38:13;;;;;;;;;;;23.40;46.90;;;;;;5015987;28;20073;-64
2022/07/23 01:40:41;;;;;;;;;;;23.40;46.90;;;;;;5012673;28;19926;-64
2022/07/23 01:43:08;;;;;;;;;;;23.40;46.90;;;;;;5014855;28;20381;-64
2022/07/23 01:45:35;;;;;;;;;;;23.30;46.90;;;;;;5012255;28;20378;-64
2022/07/23 01:48:02;;;;;;;;;;;23.30;46.90;;;;;;5026707;28;19929;-65
2022/07/23 01:50:28;;;;;;;;;;;23.40;47.00;;;;;;4995116;28;20363;-64
2022/07/23 01:52:55;;;;;;;;;;;23.40;47.00;;;;;;4992232;28;20016;-64
2022/07/23 01:55:22;;;;;;;;;;;23.40;47.00;;;;;;4994815;28;19968;-64
2022/07/23 01:57:50;;;;;;;;;;;23.40;46.90;;;;;;4993385;28;20311;-63
2022/07/23 02:00:16;;;;;;;;;;;23.30;46.90;;;;;;5009997;28;20433;-64
2022/07/23 02:02:43;;;;;;;;;;;23.30;46.90;;;;;;5008996;28;19988;-64
2022/07/23 02:05:11;;;;;;;;;;;23.30;46.90;;;;;;4994432;28;19989;-64
2022/07/23 02:07:37;;;;;;;;;;;23.30;47.00;;;;;;5010114;28;20414;-64
2022/07/23 02:10:04;;;;;;;;;;;23.30;46.90;;;;;;5015067;28;19925;-64
2022/07/23 02:12:31;;;;;;;;;;;23.30;47.00;;;;;;5028539;28;20016;-64
2022/07/23 02:14:59;;;;;;;;;;;23.30;47.00;;;;;;5014642;28;19944;-64
2022/07/23 02:17:26;;;;;;;;;;;23.30;47.00;;;;;;5013576;28;19921;-63
2022/07/23 02:19:53;;;;;;;;;;;23.30;47.60;;;;;;5027873;28;19921;-64
2022/07/23 02:22:19;;;;;;;;;;;23.30;47.00;;;;;;5030571;28;19921;-64
2022/07/23 02:24:46;;;;;;;;;;;23.30;47.00;;;;;;5014935;28;20003;-64
2022/07/23 02:27:13;;;;;;;;;;;23.30;47.00;;;;;;5001133;28;19922;-65
2022/07/23 02:29:40;;;;;;;;;;;23.30;47.00;;;;;;5006039;28;19944;-65
2022/07/23 02:32:08;;;;;;;;;;;23.30;47.00;;;;;;4999820;28;19921;-65
2022/07/23 02:34:34;;;;;;;;;;;23.30;47.00;;;;;;5013717;28;19921;-65
2022/07/23 02:37:02;;;;;;;;;;;23.30;47.00;;;;;;5013045;28;20263;-65
2022/07/23 02:39:28;;;;;;;;;;;23.30;47.00;;;;;;5011974;28;20347;-65
2022/07/23 02:41:55;;;;;;;;;;;23.30;47.00;;;;;;5013362;28;19922;-65
2022/07/23 02:44:22;;;;;;;;;;;23.30;47.00;;;;;;5011017;28;19975;-65
2022/07/23 02:46:49;;;;;;;;;;;23.30;47.60;;;;;;5028975;28;20455;-65
2022/07/23 02:49:17;;;;;;;;;;;23.30;47.00;;;;;;5029571;28;19972;-65
2022/07/23 02:51:44;;;;;;;;;;;23.30;47.10;;;;;;5010236;28;19929;-65
2022/07/23 02:54:10;;;;;;;;;;;23.30;47.00;;;;;;5024669;28;19921;-65
2022/07/23 02:56:37;;;;;;;;;;;23.30;47.00;;;;;;5001247;28;19948;-65
2022/07/23 02:59:04;;;;;;;;;;;23.30;47.00;;;;;;5020959;28;19925;-65
2022/07/23 03:01:31;;;;;;;;;;;23.30;47.00;;;;;;5012965;28;20322;-64
2022/07/23 03:03:57;;;;;;;;;;;23.30;47.00;;;;;;5011669;28;19922;-65
2022/07/23 03:06:25;;;;;;;;;;;23.30;47.10;;;;;;5004663;28;19926;-65
2022/07/23 03:08:52;;;;;;;;;;;23.30;47.00;;;;;;4992786;28;19921;-65
2022/07/23 03:11:19;;;;;;;;;;;23.30;47.10;;;;;;4994929;28;20410;-65
2022/07/23 03:13:46;;;;;;;;;;;23.30;47.00;;;;;;5004765;28;20004;-65
2022/07/23 03:16:12;;;;;;;;;;;23.30;47.10;;;;;;5013097;28;20298;-65
2022/07/23 03:18:39;;;;;;;;;;;23.30;47.00;;;;;;5009709;28;19929;-65
2022/07/23 03:21:06;;;;;;;;;;;23.30;47.00;;;;;;5012766;28;19972;-64
2022/07/23 03:23:34;;;;;;;;;;;23.30;47.10;;;;;;5013853;28;20391;-65
2022/07/23 03:26:01;;;;;;;;;;;23.30;47.10;;;;;;5007889;28;19929;-65
2022/07/23 03:28:28;;;;;;;;;;;23.30;47.10;;;;;;5012813;28;19975;-65
2022/07/23 03:30:54;;;;;;;;;;;23.30;47.10;;;;;;5008620;28;20217;-65
2022/07/23 03:33:21;;;;;;;;;;;23.30;47.10;;;;;;5005612;28;19975;-65
2022/07/23 03:35:48;;;;;;;;;;;23.20;47.00;;;;;;5013825;28;19995;-65
2022/07/23 03:38:14;;;;;;;;;;;23.30;47.10;;;;;;5012517;28;19925;-65
2022/07/23 03:40:43;;;;;;;;;;;23.30;47.10;;;;;;5010750;28;19921;-65
2022/07/23 03:43:09;;;;;;;;;;;23.30;47.20;;;;;;5012989;28;19964;-65
2022/07/23 03:45:36;;;;;;;;;;;23.30;47.20;;;;;;5027533;28;20409;-65
2022/07/23 03:48:03;;;;;;;;;;;23.20;47.10;;;;;;5012716;28;19930;-65
2022/07/23 03:50:30;;;;;;;;;;;23.30;47.20;;;;;;5013940;28;19975;-65
2022/07/23 03:52:57;;;;;;;;;;;23.20;47.10;;;;;;4991854;28;19922;-64
2022/07/23 03:55:23;;;;;;;;;;;23.30;47.20;;;;;;4992991;28;20380;-65
2022/07/23 03:57:51;;;;;;;;;;;23.30;47.20;;;;;;4991186;28;19972;-65
2022/07/23 04:00:18;;;;;;;;;;;23.30;47.30;;;;;;4991252;28;19922;-65
2022/07/23 04:02:45;;;;;;;;;;;23.30;47.30;;;;;;4990911;28;19926;-65
2022/07/23 04:05:11;;;;;;;;;;;23.30;47.30;;;;;;5001141;28;20019;-65
2022/07/23 04:07:38;;;;;;;;;;;23.30;47.30;;;;;;5010430;28;20367;-65
2022/07/23 04:10:05;;;;;;;;;;;23.30;47.30;;;;;;4995445;28;19979;-65
2022/07/23 04:12:32;;;;;;;;;;;23.20;47.30;;;;;;5000723;28;19922;-65
2022/07/23 04:15:00;;;;;;;;;;;23.30;47.30;;;;;;5012356;28;19964;-65
2022/07/23 04:17:28;;;;;;;;;;;23.30;47.40;;;;;;5012268;28;20016;-65
2022/07/23 04:19:54;;;;;;;;;;;23.20;47.30;;;;;;5007030;28;19929;-65
2022/07/23 04:22:21;;;;;;;;;;;23.20;47.30;;;;;;5029275;28;19922;-65
2022/07/23 04:24:49;;;;;;;;;;;23.30;47.50;;;;;;5000052;28;20006;-64
2022/07/23 04:27:18;;;;;;;;;;;23.20;47.40;;;;;;5013743;28;20010;-65
2022/07/23 04:29:45;;;;;;;;;;;23.20;47.40;;;;;;5015717;28;19932;-65
2022/07/23 04:32:13;;;;;;;;;;;23.20;47.40;;;;;;5015782;28;19922;-65
2022/07/23 04:34:39;;;;;;;;;;;23.20;47.40;;;;;;4996877;28;19949;-65
2022/07/23 04:37:06;;;;;;;;;;;23.20;47.40;;;;;;4997784;28;19922;-65
2022/07/23 04:39:33;;;;;;;;;;;23.20;47.40;;;;;;5005169;28;19944;-65
2022/07/23 04:42:00;;;;;;;;;;;23.20;47.40;;;;;;4995572;28;19973;-65
2022/07/23 04:44:26;;;;;;;;;;;23.20;47.40;;;;;;4996065;28;19926;-64
2022/07/23 04:46:53;;;;;;;;;;;23.20;47.40;;;;;;5009982;28;19975;-65
2022/07/23 04:49:21;;;;;;;;;;;23.20;47.40;;;;;;5016438;28;19921;-65
2022/07/23 04:51:48;;;;;;;;;;;23.20;47.40;;;;;;5004526;28;19922;-65
2022/07/23 04:54:15;;;;;;;;;;;23.20;47.50;;;;;;4997340;28;19980;-65
2022/07/23 04:56:42;;;;;;;;;;;23.20;47.50;;;;;;4996414;28;19922;-65
2022/07/23 04:59:09;;;;;;;;;;;23.20;47.50;;;;;;4998707;28;20008;-64
2022/07/23 05:01:36;;;;;;;;;;;23.20;47.50;;;;;;5015191;28;20386;-64
2022/07/23 05:04:02;;;;;;;;;;;23.20;47.50;;;;;;5013296;28;19926;-65
2022/07/23 05:06:31;;;;;;;;;;;23.20;47.50;;;;;;5013841;28;19921;-64
2022/07/23 05:08:57;;;;;;;;;;;23.20;47.50;;;;;;5016294;28;19921;-64
2022/07/23 05:11:24;;;;;;;;;;;23.20;47.50;;;;;;5029698;28;20024;-65
2022/07/23 05:13:51;;;;;;;;;;;23.20;47.50;;;;;;4996539;28;19922;-66
2022/07/23 05:16:18;;;;;;;;;;;23.20;47.60;;;;;;5031701;28;19925;-65
2022/07/23 05:18:44;;;;;;;;;;;23.10;47.50;;;;;;5011196;28;20260;-65
2022/07/23 05:21:11;;;;;;;;;;;23.10;47.50;;;;;;5013337;28;19925;-65
2022/07/23 05:23:39;;;;;;;;;;;23.20;47.60;;;;;;5015054;28;20375;-65
2022/07/23 05:26:06;;;;;;;;;;;23.20;47.60;;;;;;5013132;28;19948;-65
2022/07/23 05:28:33;;;;;;;;;;;23.20;47.60;;;;;;5014927;28;19928;-65
2022/07/23 05:31:00;;;;;;;;;;;23.10;47.50;;;;;;5015418;28;19928;-65
2022/07/23 05:33:26;;;;;;;;;;;23.20;47.70;;;;;;5012390;28;19929;-64
2022/07/23 05:35:53;;;;;;;;;;;23.20;47.70;;;;;;5014006;28;20438;-65
2022/07/23 05:38:20;;;;;;;;;;;23.20;47.70;;;;;;5003197;28;19991;-64
2022/07/23 05:40:48;;;;;;;;;;;23.20;47.70;;;;;;4998330;28;19928;-65
2022/07/23 05:43:15;;;;;;;;;;;23.20;47.70;;;;;;5002783;28;19925;-65
2022/07/23 05:45:41;;;;;;;;;;;23.20;47.70;;;;;;4996944;28;20008;-64
2022/07/23 05:48:08;;;;;;;;;;;23.20;47.70;;;;;;5030836;28;19921;-65
2022/07/23 05:50:37;;;;;;;;;;;23.10;47.70;;;;;;5011320;28;19971;-64
2022/07/23 05:53:04;;;;;;;;;;;23.20;47.70;;;;;;5012971;28;19975;-65
2022/07/23 05:55:31;;;;;;;;;;;23.10;47.70;;;;;;5012842;28;19971;-64
2022/07/23 05:57:59;;;;;;;;;;;23.20;47.80;;;;;;5014080;28;19921;-64
2022/07/23 06:00:27;;;;;;;;;;;23.20;47.80;;;;;;5011910;28;19922;-64
2022/07/23 06:02:54;;;;;;;;;;;23.10;47.80;;;;;;5011799;28;19922;-65
2022/07/23 06:05:21;;;;;;;;;;;23.10;47.80;;;;;;5025502;28;19926;-65
2022/07/23 06:07:48;;;;;;;;;;;23.20;47.80;;;;;;5006118;28;19921;-65
2022/07/23 06:10:14;;;;;;;;;;;23.20;47.80;;;;;;5030489;28;19968;-64
2022/07/23 06:12:41;;;;;;;;;;;23.20;47.80;;;;;;5015239;28;19928;-65
2022/07/23 06:15:12;;;;;;;;;;;23.20;47.80;;;;;;5011819;28;19925;-65
2022/07/23 06:17:39;;;;;;;;;;;23.20;47.80;;;;;;5028392;28;19944;-64
2022/07/23 06:20:07;;;;;;;;;;;23.10;47.80;;;;;;5011837;28;20268;-65
2022/07/23 06:22:33;;;;;;;;;;;23.10;47.80;;;;;;4996465;28;19929;-64
2022/07/23 06:25:00;;;;;;;;;;;23.20;47.90;;;;;;5013682;28;19944;-64
2022/07/23 06:27:29;;;;;;;;;;;23.10;47.80;;;;;;5011024;28;19932;-64
2022/07/23 06:29:55;;;;;;;;;;;23.20;47.90;;;;;;5013647;28;19952;-64
2022/07/23 06:32:23;;;;;;;;;;;23.20;47.90;;;;;;5008515;28;19922;-65
2022/07/23 06:34:55;;;;;;;;;;;23.20;47.90;;;;;;5005447;28;20023;-65
2022/07/23 06:37:22;;;;;;;;;;;23.20;47.90;;;;;;5013313;28;19921;-64
2022/07/23 06:39:49;;;;;;;;;;;23.20;47.90;;;;;;5025520;28;20020;-65
2022/07/23 06:42:18;;;;;;;;;;;23.20;47.90;;;;;;5014121;28;20414;-65
2022/07/23 06:44:45;;;;;;;;;;;23.20;47.90;;;;;;5011917;28;20318;-65
2022/07/23 06:47:12;;;;;;;;;;;23.10;47.90;;;;;;5000857;28;19922;-65
2022/07/23 06:49:40;;;;;;;;;;;23.20;48.00;;;;;;4999865;28;19925;-65
2022/07/23 06:52:07;;;;;;;;;;;23.20;47.90;;;;;;5011309;28;19949;-65
2022/07/23 06:54:34;;;;;;;;;;;23.20;47.90;;;;;;5011805;28;19956;-64
2022/07/23 06:57:01;;;;;;;;;;;23.20;47.90;;;;;;5011040;28;19921;-64
2022/07/23 06:59:28;;;;;;;;;;;23.20;47.90;;;;;;4994298;28;19954;-65
2022/07/23 07:01:54;;;;;;;;;;;23.10;47.80;;;;;;5011353;28;19967;-64
2022/07/23 07:04:21;;;;;;;;;;;23.10;47.80;;;;;;5010742;28;19921;-64
2022/07/23 07:06:49;;;;;;;;;;;23.10;47.90;;;;;;5005357;28;19968;-64
2022/07/23 07:09:16;;;;;;;;;;;23.10;47.80;;;;;;5011865;28;19926;-64
2022/07/23 07:11:43;;;;;;;;;;;23.10;47.80;;;;;;5012670;28;19975;-65
2022/07/23 07:14:09;;;;;;;;;;;23.10;47.80;;;;;;5010950;28;20279;-65
2022/07/23 07:16:36;;;;;;;;;;;23.10;47.80;;;;;;5014553;28;19928;-65
2022/07/23 07:19:03;;;;;;;;;;;23.10;47.80;;;;;;5010289;28;19928;-65
2022/07/23 07:21:29;;;;;;;;;;;23.10;48.40;;;;;;5011578;28;19972;-65
2022/07/23 07:23:57;;;;;;;;;;;23.10;47.70;;;;;;5012779;28;19948;-65
2022/07/23 07:26:24;;;;;;;;;;;23.10;47.70;;;;;;5008490;28;20033;-65
2022/07/23 07:28:51;;;;;;;;;;;23.10;47.70;;;;;;5024376;28;20021;-65
2022/07/23 07:31:18;;;;;;;;;;;23.10;47.70;;;;;;4998246;28;20041;-65
2022/07/23 07:33:44;;;;;;;;;;;23.10;47.70;;;;;;5002372;28;19929;-64
2022/07/23 07:36:11;;;;;;;;;;;23.10;47.70;;;;;;4993154;28;20310;-65
2022/07/23 07:38:38;;;;;;;;;;;23.10;47.60;;;;;;5002448;28;20003;-65
2022/07/23 07:41:07;;;;;;;;;;;23.10;47.60;;;;;;5009136;28;19921;-65
2022/07/23 07:43:34;;;;;;;;;;;23.10;47.60;;;;;;5013034;28;19929;-65
2022/07/23 07:46:00;;;;;;;;;;;23.10;47.60;;;;;;5014273;28;19928;-64
2022/07/23 07:48:27;;;;;;;;;;;23.10;47.60;;;;;;5012487;28;20044;-65
2022/07/23 07:50:54;;;;;;;;;;;23.10;47.60;;;;;;5012910;28;19972;-65
2022/07/23 07:53:21;;;;;;;;;;;23.10;47.50;;;;;;5012628;28;20366;-65
2022/07/23 07:55:48;;;;;;;;;;;23.10;47.50;;;;;;5017387;28;19925;-65
2022/07/23 07:58:16;;;;;;;;;;;23.10;47.50;;;;;;5010915;28;19926;-65
2022/07/23 08:00:42;;;;;;;;;;;23.10;47.50;;;;;;5026310;28;19965;-65
2022/07/23 08:03:09;;;;;;;;;;;23.10;47.60;;;;;;5033518;28;19925;-65
2022/07/23 08:05:36;;;;;;;;;;;23.00;47.50;;;;;;5032626;28;20370;-65
2022/07/23 08:08:02;;;;;;;;;;;23.10;47.60;;;;;;5017952;28;20322;-65
2022/07/23 08:10:31;;;;;;;;;;;23.10;47.60;;;;;;5014319;28;19976;-65
2022/07/23 08:12:58;;;;;;;;;;;23.00;47.50;;;;;;5007207;28;20388;-65
2022/07/23 08:15:26;;;;;;;;;;;23.10;47.60;;;;;;5002950;28;19921;-65
2022/07/23 08:17:53;;;;;;;;;;;23.00;47.60;;;;;;5003120;28;19925;-66
2022/07/23 08:20:20;;;;;;;;;;;23.00;47.60;;;;;;5017513;28;20016;-65
2022/07/23 08:22:49;;;;;;;;;;;23.00;47.60;;;;;;5014100;28;19930;-65
2022/07/23 08:25:16;;;;;;;;;;;23.00;47.70;;;;;;5013914;28;19988;-65
2022/07/23 08:27:43;;;;;;;;;;;23.00;47.80;;;;;;5017842;28;19921;-65
2022/07/23 08:30:10;;;;;;;;;;;23.00;47.90;;;;;;5013101;28;20016;-65
2022/07/23 08:32:51;;;;;;;;;;;23.00;47.90;;;;;;5013893;28;20371;-65
2022/07/23 08:35:18;;;;;;;;;;;23.00;48.00;;;;;;5009560;28;19921;-65
2022/07/23 08:37:45;;;;;;;;;;;23.00;47.90;;;;;;5016751;28;19922;-65
2022/07/23 08:40:12;;;;;;;;;;;22.90;47.70;;;;;;4997508;28;19922;-65
2022/07/23 08:42:38;;;;;;;;;;;22.90;47.70;;;;;;5011686;28;19925;-65
2022/07/23 08:45:06;;;;;;;;;;;22.90;47.60;;;;;;5014498;28;20322;-64
2022/07/23 08:47:33;;;;;;;;;;;22.90;47.70;;;;;;4999446;28;19922;-65
2022/07/23 08:50:01;;;;;;;;;;;22.90;47.70;;;;;;4993641;28;20016;-65
2022/07/23 08:52:27;;;;;;;;;;;22.90;47.60;;;;;;5012891;28;19922;-65
2022/07/23 08:54:54;;;;;;;;;;;22.90;47.60;;;;;;5012715;28;19922;-65
2022/07/23 08:57:21;;;;;;;;;;;22.90;47.60;;;;;;5010984;28;19945;-65
2022/07/23 08:59:47;;;;;;;;;;;22.90;47.60;;;;;;5013548;28;20545;-65
2022/07/23 09:02:14;;;;;;;;;;;22.90;47.70;;;;;;5006865;28;19922;-65
2022/07/23 09:04:41;;;;;;;;;;;22.90;47.70;;;;;;4999170;28;20310;-65
2022/07/23 09:07:09;;;;;;;;;;;22.90;47.70;;;;;;5013717;28;19952;-62
2022/07/23 09:09:36;;;;;;;;;;;22.80;47.70;;;;;;5014066;28;19921;-62
2022/07/23 09:12:03;;;;;;;;;;;22.90;47.80;;;;;;5030392;28;19922;-62
2022/07/23 09:14:37;;;;;;;;;;;22.90;47.90;;;;;;5031809;28;20020;-62
2022/07/23 09:17:08;;;;;;;;;;;22.90;47.80;;;;;;5011436;28;19922;-63
2022/07/23 09:19:35;;;;;;;;;;;22.90;47.90;;;;;;5015619;28;19921;-63
2022/07/23 09:25:06;;;;;;;;;;;22.90;47.90;;;;;;5089259;27;20344;-59
2022/07/23 09:27:49;;;;;;;;;;;22.90;47.90;;;;;;5046725;28;20429;-57
2022/07/23 09:30:16;;;;;;;;;;;23.00;48.00;;;;;;5076563;28;19929;-58
2022/07/23 09:32:43;;;;;;;;;;;23.00;48.00;;;;;;5078307;28;19960;-59
2022/07/23 09:35:10;;;;;;;;;;;23.00;47.90;;;;;;5050838;28;19932;-58
2022/07/23 09:37:37;;;;;;;;;;;23.00;47.80;;;;;;5045898;28;20016;-59
2022/07/23 09:40:06;;;;;;;;;;;23.00;47.70;;;;;;5042557;28;19968;-59
2022/07/23 09:42:33;;;;;;;;;;;23.00;47.40;;;;;;5050097;28;19921;-58
2022/07/23 09:44:59;;;;;;;;;;;23.00;47.30;;;;;;5047580;28;19983;-59
2022/07/23 09:47:27;;;;;;;;;;;23.00;47.20;;;;;;5049692;28;19932;-58
2022/07/23 09:50:00;;;;;;;;;;;23.00;47.00;;;;;;5050558;28;20366;-60
2022/07/23 09:52:27;;;;;;;;;;;23.00;46.70;;;;;;5044689;28;19932;-59
2022/07/23 09:54:58;;;;;;;;;;;22.90;46.00;;;;;;5055341;28;20270;-59
2022/07/23 09:57:26;;;;;;;;;;;22.90;45.80;;;;;;5045305;28;19929;-59
2022/07/23 09:59:53;;;;;;;;;;;22.90;45.60;;;;;;5049534;28;20358;-59
2022/07/23 10:02:20;;;;;;;;;;;22.90;45.50;;;;;;5050940;28;19960;-60
2022/07/23 10:04:47;;;;;;;;;;;22.90;45.70;;;;;;5043295;28;20133;-58
2022/07/23 10:07:14;;;;;;;;;;;22.90;45.80;;;;;;5042824;28;19933;-60
2022/07/23 10:09:42;;;;;;;;;;;22.80;45.80;;;;;;5045804;28;19928;-59
2022/07/23 10:12:15;;;;;;;;;;;22.80;45.90;;;;;;5078917;28;19937;-58
2022/07/23 10:14:44;;;;;;;;;;;22.80;45.80;;;;;;5042803;28;19921;-58
2022/07/23 10:17:12;;;;;;;;;;;22.80;45.90;;;;;;5076756;28;19928;-60
2022/07/23 10:19:39;;;;;;;;;;;22.80;46.00;;;;;;5042461;28;20019;-59
2022/07/23 10:22:08;;;;;;;;;;;22.80;46.10;;;;;;5045705;28;19925;-59
2022/07/23 10:24:48;;;;;;;;;;;22.80;46.20;;;;;;5041547;28;20281;-58
2022/07/23 10:27:21;;;;;;;;;;;22.80;46.30;;;;;;5041778;28;20004;-58
2022/07/23 10:29:51;;;;;;;;;;;22.80;46.40;;;;;;5045282;28;20627;-60
2022/07/23 10:32:20;;;;;;;;;;;22.80;46.30;;;;;;5045145;28;19974;-58
2022/07/23 10:34:50;;;;;;;;;;;22.80;46.20;;;;;;5045125;28;19921;-60
2022/07/23 10:37:21;;;;;;;;;;;22.90;46.20;;;;;;5059476;28;20232;-59
2022/07/23 10:39:48;;;;;;;;;;;22.80;46.10;;;;;;5062217;28;19948;-60
2022/07/23 10:42:15;;;;;;;;;;;22.90;46.10;;;;;;5023253;28;19928;-59
2022/07/23 10:44:43;;;;;;;;;;;22.90;46.10;;;;;;5028675;28;19925;-59
2022/07/23 10:47:20;;;;;;;;;;;22.90;46.00;;;;;;5038354;28;20017;-60
2022/07/23 10:49:47;;;;;;;;;;;22.90;46.00;;;;;;5025905;28;20398;-59
2022/07/23 10:52:18;;;;;;;;;;;22.90;45.80;;;;;;5030095;28;20339;-59
2022/07/23 10:54:45;;;;;;;;;;;22.90;45.80;;;;;;5030598;28;19976;-60
2022/07/23 10:57:12;;;;;;;;;;;22.90;45.80;;;;;;5032808;28;20007;-59
2022/07/23 10:59:57;;;;;;;;;;;22.90;45.80;;;;;;5031172;28;20354;-59
2022/07/23 11:02:26;;;;;;;;;;;22.90;45.80;;;;;;5037527;28;19921;-59
2022/07/23 11:04:54;;;;;;;;;;;22.90;45.80;;;;;;5038304;28;19936;-59
2022/07/23 11:07:21;;;;;;;;;;;22.90;45.80;;;;;;5036229;28;19936;-58
2022/07/23 11:09:48;;;;;;;;;;;22.90;45.80;;;;;;5033236;28;19925;-59
2022/07/23 11:12:32;;;;;;;;;;;22.90;45.80;;;;;;5036545;28;20006;-59
2022/07/23 11:14:59;;;;;;;;;;;22.90;45.80;;;;;;5031966;28;20298;-60
2022/07/23 11:17:27;;;;;;;;;;;22.90;45.80;;;;;;5032144;28;19976;-60
2022/07/23 11:20:15;;;;;;;;;;;22.90;45.80;;;;;;5035786;28;19921;-59
2022/07/23 11:22:49;;;;;;;;;;;22.90;45.80;;;;;;5029911;28;19979;-58
2022/07/23 11:25:29;;;;;;;;;;;22.90;45.70;;;;;;5064536;28;19976;-60
2022/07/23 11:27:56;;;;;;;;;;;22.90;45.70;;;;;;5030800;28;19943;-60
2022/07/23 11:30:38;;;;;;;;;;;22.90;45.70;;;;;;5040744;28;20432;-60
2022/07/23 11:33:17;;;;;;;;;;;22.90;45.60;;;;;;5063369;28;19921;-59
2022/07/23 11:35:44;;;;;;;;;;;22.90;45.60;;;;;;5037219;28;20406;-58
2022/07/23 11:38:13;;;;;;;;;;;23.00;45.60;;;;;;5033526;28;20002;-59
2022/07/23 11:40:40;;;;;;;;;;;23.00;45.50;;;;;;5029949;28;19921;-59
2022/07/23 11:43:07;;;;;;;;;;;23.00;45.40;;;;;;5041085;28;20285;-59
2022/07/23 11:45:35;;;;;;;;;;;23.00;45.40;;;;;;5030086;28;20374;-59
2022/07/23 11:48:01;;;;;;;;;;;23.00;45.20;;;;;;5031419;28;19924;-59
2022/07/23 11:50:30;;;;;;;;;;;22.90;45.10;;;;;;5023416;28;19976;-59
2022/07/23 11:52:57;;;;;;;;;;;23.00;45.10;;;;;;5027414;28;19928;-58
2022/07/23 11:55:24;;;;;;;;;;;22.90;45.60;;;;;;5032500;28;19921;-60
2022/07/23 11:57:51;;;;;;;;;;;22.90;45.00;;;;;;5036814;28;20004;-59
2022/07/23 12:00:18;;;;;;;;;;;22.90;45.10;;;;;;5032964;28;20310;-59
2022/07/23 12:02:46;;;;;;;;;;;22.90;45.10;;;;;;5035358;28;20349;-57
2022/07/23 12:05:13;;;;;;;;;;;22.90;45.10;;;;;;5029992;28;20006;-58
2022/07/23 12:07:43;;;;;;;;;;;22.90;45.10;;;;;;5027999;28;19971;-60
2022/07/23 12:10:10;;;;;;;;;;;22.90;45.10;;;;;;5031360;28;19929;-58
2022/07/23 12:12:37;;;;;;;;;;;22.90;45.20;;;;;;5035762;28;19931;-59
2022/07/23 12:15:05;;;;;;;;;;;22.90;45.20;;;;;;5038308;28;19933;-59
2022/07/23 12:17:32;;;;;;;;;;;22.90;45.30;;;;;;5033242;28;19921;-60
2022/07/23 12:19:59;;;;;;;;;;;22.90;45.30;;;;;;5039219;28;19980;-59
2022/07/23 12:22:26;;;;;;;;;;;23.00;45.40;;;;;;5030278;28;19925;-59
2022/07/23 12:24:55;;;;;;;;;;;23.00;45.40;;;;;;5031220;28;20347;-57
2022/07/23 12:27:21;;;;;;;;;;;22.90;45.40;;;;;;5029971;28;19929;-58
2022/07/23 12:29:48;;;;;;;;;;;23.00;45.50;;;;;;5028574;28;20580;-57
2022/07/23 12:32:18;;;;;;;;;;;22.90;45.60;;;;;;5031242;28;19921;-58
2022/07/23 12:34:45;;;;;;;;;;;22.90;45.70;;;;;;5044166;28;19982;-58
2022/07/23 12:37:25;;;;;;;;;;;22.90;45.70;;;;;;5033637;28;19974;-59
2022/07/23 12:39:52;;;;;;;;;;;22.90;45.60;;;;;;5056529;28;19921;-59
2022/07/23 12:42:20;;;;;;;;;;;22.90;45.50;;;;;;5022870;28;19975;-59
2022/07/23 12:45:06;;;;;;;;;;;22.90;45.70;;;;;;5038990;28;19952;-57
2022/07/23 12:47:47;;;;;;;;;;;22.90;45.80;;;;;;5042498;28;19921;-59
2022/07/23 12:50:29;;;;;;;;;;;22.90;46.00;;;;;;5031627;28;20307;-62
2022/07/23 12:53:02;;;;;;;;;;;22.90;46.40;;;;;;5033954;28;19922;-58
2022/07/23 12:55:28;;;;;;;;;;;22.90;46.80;;;;;;5035486;28;19925;-60
2022/07/23 12:58:06;;;;;;;;;;;22.90;47.00;;;;;;5037744;28;19925;-59
2022/07/23 13:00:33;;;;;;;;;;;22.90;47.00;;;;;;5022498;28;19925;-59
2022/07/23 13:03:00;;;;;;;;;;;22.90;47.00;;;;;;5032334;28;20371;-59
2022/07/23 13:05:27;;;;;;;;;;;22.80;46.90;;;;;;5062864;28;20343;-61
2022/07/23 13:07:56;;;;;;;;;;;22.80;46.90;;;;;;5033073;28;19926;-59
2022/07/23 13:10:26;;;;;;;;;;;22.80;46.90;;;;;;5033722;28;19925;-59
2022/07/23 13:12:53;;;;;;;;;;;22.80;46.90;;;;;;5053733;28;19921;-60
2022/07/23 13:15:22;;;;;;;;;;;22.80;47.00;;;;;;5047883;28;19925;-59
2022/07/23 13:17:49;;;;;;;;;;;22.80;46.90;;;;;;5016898;28;20019;-60
2022/07/23 13:20:16;;;;;;;;;;;22.80;46.80;;;;;;5058609;28;19986;-60
2022/07/23 13:22:42;;;;;;;;;;;22.80;46.70;;;;;;5034136;28;19920;-59
2022/07/23 13:25:09;;;;;;;;;;;22.80;46.60;;;;;;5029254;28;20004;-59
2022/07/23 13:27:36;;;;;;;;;;;22.70;46.60;;;;;;5035223;28;19933;-59
2022/07/23 13:30:03;;;;;;;;;;;22.70;46.50;;;;;;5033481;28;20019;-59
2022/07/23 13:32:31;;;;;;;;;;;22.70;46.50;;;;;;5029441;28;19922;-60
2022/07/23 13:34:58;;;;;;;;;;;22.70;46.40;;;;;;5056354;28;19972;-59
2022/07/23 13:37:26;;;;;;;;;;;22.70;46.40;;;;;;5035454;28;20023;-58
2022/07/23 13:39:53;;;;;;;;;;;22.70;46.40;;;;;;5035252;28;20006;-58
2022/07/23 13:42:19;;;;;;;;;;;22.70;46.40;;;;;;5035942;28;19976;-59
2022/07/23 13:44:46;;;;;;;;;;;22.70;46.30;;;;;;5029178;28;20278;-59
2022/07/23 13:47:13;;;;;;;;;;;22.70;46.30;;;;;;5026750;28;20359;-60
2022/07/23 13:49:41;;;;;;;;;;;22.60;46.20;;;;;;5030380;28;19963;-60
2022/07/23 13:52:08;;;;;;;;;;;22.70;46.30;;;;;;5027970;28;19921;-59
2022/07/23 13:54:35;;;;;;;;;;;22.70;46.30;;;;;;5026948;28;19940;-59
2022/07/23 13:57:02;;;;;;;;;;;22.70;46.30;;;;;;5062987;28;20422;-59
2022/07/23 13:59:29;;;;;;;;;;;22.70;46.30;;;;;;5033698;28;19975;-58
2022/07/23 14:01:56;;;;;;;;;;;22.70;46.30;;;;;;5029688;28;19972;-59
2022/07/23 14:04:23;;;;;;;;;;;22.60;46.20;;;;;;5028370;28;19943;-58
2022/07/23 14:06:51;;;;;;;;;;;22.70;46.30;;;;;;5033668;28;20032;-57
2022/07/23 14:09:18;;;;;;;;;;;22.70;46.30;;;;;;5032650;28;20340;-58
2022/07/23 14:11:44;;;;;;;;;;;22.70;46.20;;;;;;5038855;28;20000;-58
2022/07/23 14:14:11;;;;;;;;;;;22.70;46.10;;;;;;5027701;28;20004;-57
2022/07/23 14:16:38;;;;;;;;;;;22.70;46.10;;;;;;5039678;28;20359;-58
2022/07/23 14:19:05;;;;;;;;;;;22.70;46.10;;;;;;5036541;28;19921;-58
2022/07/23 14:21:32;;;;;;;;;;;22.70;46.00;;;;;;5033236;28;19921;-58